« Back
NWS Peachtree City, Ga » Text Product » CSG Terminal Aerodrome Forecast


Printer-friendly Version
Current Version              Previous Versions:   1  2  3  4  5  6  7  8  9  

Terminal Aerodrome Forecast

787
FTUS42 KFFC 230520
TAFCSG
TAF
KCSG 230520Z 2306/2406 VRB03KT P6SM SCT120 SCT250
     FM231500 VRB05KT P6SM SCT050 SCT100 BKN250 PROB30 2319/2323 6SM
      TSRA BKN050CB
     FM240000 08004KT P6SM SCT060 BKN180=



USA.gov is the U.S. government's official web portal to all federal, state and local government web resources and services.